sensor_id;sensor_type;location;lat;lon;timestamp;temperature;humidity
19090;DHT22;9677;50.656;13.064;2023-07-24T00:02:09;24.50;36.10
19090;DHT22;9677;50.656;13.064;2023-07-24T00:04:39;24.40;36.10
19090;DHT22;9677;50.656;13.064;2023-07-24T00:07:07;24.40;36.30
19090;DHT22;9677;50.656;13.064;2023-07-24T00:09:35;24.40;36.40
19090;DHT22;9677;50.656;13.064;2023-07-24T00:12:04;24.40;36.30
19090;DHT22;9677;50.656;13.064;2023-07-24T00:14:33;24.40;36.40
19090;DHT22;9677;50.656;13.064;2023-07-24T00:17:02;24.40;36.40
19090;DHT22;9677;50.656;13.064;2023-07-24T00:19:30;24.30;36.50
19090;DHT22;9677;50.656;13.064;2023-07-24T00:22:00;24.30;36.60
19090;DHT22;9677;50.656;13.064;2023-07-24T00:24:29;24.30;36.70
19090;DHT22;9677;50.656;13.064;2023-07-24T00:26:58;24.30;36.70
19090;DHT22;9677;50.656;13.064;2023-07-24T00:29:26;24.30;36.80
19090;DHT22;9677;50.656;13.064;2023-07-24T00:31:55;24.40;36.90
19090;DHT22;9677;50.656;13.064;2023-07-24T00:34:23;24.20;36.90
19090;DHT22;9677;50.656;13.064;2023-07-24T00:36:55;24.20;36.80
19090;DHT22;9677;50.656;13.064;2023-07-24T00:39:25;24.10;36.80
19090;DHT22;9677;50.656;13.064;2023-07-24T00:41:56;24.10;36.90
19090;DHT22;9677;50.656;13.064;2023-07-24T00:44:24;24.10;36.90
19090;DHT22;9677;50.656;13.064;2023-07-24T00:46:54;24.10;36.90
19090;DHT22;9677;50.656;13.064;2023-07-24T00:49:22;24.00;36.90
19090;DHT22;9677;50.656;13.064;2023-07-24T00:51:51;24.00;37.00
19090;DHT22;9677;50.656;13.064;2023-07-24T00:54:22;24.10;37.30
19090;DHT22;9677;50.656;13.064;2023-07-24T00:56:51;24.00;37.40
19090;DHT22;9677;50.656;13.064;2023-07-24T00:59:20;23.90;37.30
19090;DHT22;9677;50.656;13.064;2023-07-24T01:01:49;23.90;37.30
19090;DHT22;9677;50.656;13.064;2023-07-24T01:04:18;23.90;37.40
19090;DHT22;9677;50.656;13.064;2023-07-24T01:06:46;23.90;37.50
19090;DHT22;9677;50.656;13.064;2023-07-24T01:09:14;23.80;37.40
19090;DHT22;9677;50.656;13.064;2023-07-24T01:11:46;23.80;37.50
19090;DHT22;9677;50.656;13.064;2023-07-24T01:14:21;23.80;37.60
19090;DHT22;9677;50.656;13.064;2023-07-24T01:16:54;23.80;37.90
19090;DHT22;9677;50.656;13.064;2023-07-24T01:19:35;23.70;37.70
19090;DHT22;9677;50.656;13.064;2023-07-24T01:22:12;23.70;38.10
19090;DHT22;9677;50.656;13.064;2023-07-24T01:24:52;23.60;37.90
19090;DHT22;9677;50.656;13.064;2023-07-24T01:27:30;23.60;38.10
19090;DHT22;9677;50.656;13.064;2023-07-24T01:29:58;23.60;37.90
19090;DHT22;9677;50.656;13.064;2023-07-24T01:32:26;23.50;37.80
19090;DHT22;9677;50.656;13.064;2023-07-24T01:34:55;23.50;37.90
19090;DHT22;9677;50.656;13.064;2023-07-24T01:37:25;23.50;37.90
19090;DHT22;9677;50.656;13.064;2023-07-24T01:39:54;23.40;38.10
19090;DHT22;9677;50.656;13.064;2023-07-24T01:42:23;23.40;38.20
19090;DHT22;9677;50.656;13.064;2023-07-24T01:44:54;23.40;38.20
19090;DHT22;9677;50.656;13.064;2023-07-24T01:47:23;23.40;38.30
19090;DHT22;9677;50.656;13.064;2023-07-24T01:49:51;23.30;38.20
19090;DHT22;9677;50.656;13.064;2023-07-24T01:52:19;23.30;38.30
19090;DHT22;9677;50.656;13.064;2023-07-24T01:54:47;23.30;39.00
19090;DHT22;9677;50.656;13.064;2023-07-24T01:57:16;23.20;38.40
19090;DHT22;9677;50.656;13.064;2023-07-24T01:59:44;23.20;38.50
19090;DHT22;9677;50.656;13.064;2023-07-24T02:02:14;23.20;38.50
19090;DHT22;9677;50.656;13.064;2023-07-24T02:04:42;23.10;38.70
19090;DHT22;9677;50.656;13.064;2023-07-24T02:07:10;23.10;38.60
19090;DHT22;9677;50.656;13.064;2023-07-24T02:09:38;23.10;38.70
19090;DHT22;9677;50.656;13.064;2023-07-24T02:12:07;23.00;38.80
19090;DHT22;9677;50.656;13.064;2023-07-24T02:14:35;23.10;38.90
19090;DHT22;9677;50.656;13.064;2023-07-24T02:17:04;23.00;38.90
19090;DHT22;9677;50.656;13.064;2023-07-24T02:19:33;22.90;39.00
19090;DHT22;9677;50.656;13.064;2023-07-24T02:22:01;22.90;39.10
19090;DHT22;9677;50.656;13.064;2023-07-24T02:24:34;22.90;39.00
19090;DHT22;9677;50.656;13.064;2023-07-24T02:27:04;23.00;39.10
19090;DHT22;9677;50.656;13.064;2023-07-24T02:29:33;22.80;39.20
19090;DHT22;9677;50.656;13.064;2023-07-24T02:32:03;22.80;39.20
19090;DHT22;9677;50.656;13.064;2023-07-24T02:34:32;22.80;39.30
19090;DHT22;9677;50.656;13.064;2023-07-24T02:37:01;22.80;39.30
19090;DHT22;9677;50.656;13.064;2023-07-24T02:39:29;22.70;39.30
19090;DHT22;9677;50.656;13.064;2023-07-24T02:41:57;22.70;39.40
19090;DHT22;9677;50.656;13.064;2023-07-24T02:44:25;22.70;39.40
19090;DHT22;9677;50.656;13.064;2023-07-24T02:46:53;22.70;39.40
19090;DHT22;9677;50.656;13.064;2023-07-24T02:49:22;22.70;39.50
19090;DHT22;9677;50.656;13.064;2023-07-24T02:51:51;22.70;39.60
19090;DHT22;9677;50.656;13.064;2023-07-24T02:54:20;22.60;39.60
19090;DHT22;9677;50.656;13.064;2023-07-24T02:56:48;22.60;39.70
19090;DHT22;9677;50.656;13.064;2023-07-24T02:59:16;22.60;39.70
19090;DHT22;9677;50.656;13.064;2023-07-24T03:01:44;22.60;39.80
19090;DHT22;9677;50.656;13.064;2023-07-24T03:04:12;22.50;39.90
19090;DHT22;9677;50.656;13.064;2023-07-24T03:06:40;22.50;39.90
19090;DHT22;9677;50.656;13.064;2023-07-24T03:09:10;22.50;40.00
19090;DHT22;9677;50.656;13.064;2023-07-24T03:11:38;22.50;40.10
19090;DHT22;9677;50.656;13.064;2023-07-24T03:14:06;22.40;40.00
19090;DHT22;9677;50.656;13.064;2023-07-24T03:16:35;22.40;40.10
19090;DHT22;9677;50.656;13.064;2023-07-24T03:19:03;22.40;40.20
19090;DHT22;9677;50.656;13.064;2023-07-24T03:21:31;22.40;40.20
19090;DHT22;9677;50.656;13.064;2023-07-24T03:24:00;22.40;40.30
19090;DHT22;9677;50.656;13.064;2023-07-24T03:26:30;22.40;40.30
19090;DHT22;9677;50.656;13.064;2023-07-24T03:28:58;22.30;40.30
19090;DHT22;9677;50.656;13.064;2023-07-24T03:31:28;22.40;40.40
19090;DHT22;9677;50.656;13.064;2023-07-24T03:33:56;22.30;40.50
19090;DHT22;9677;50.656;13.064;2023-07-24T03:36:24;22.30;40.60
19090;DHT22;9677;50.656;13.064;2023-07-24T03:38:53;22.20;40.60
19090;DHT22;9677;50.656;13.064;2023-07-24T03:41:21;22.20;40.60
19090;DHT22;9677;50.656;13.064;2023-07-24T03:43:50;22.20;40.70
19090;DHT22;9677;50.656;13.064;2023-07-24T03:46:19;22.20;40.80
19090;DHT22;9677;50.656;13.064;2023-07-24T03:48:47;22.20;40.70
19090;DHT22;9677;50.656;13.064;2023-07-24T03:51:16;22.10;40.80
19090;DHT22;9677;50.656;13.064;2023-07-24T03:53:44;22.10;40.80
19090;DHT22;9677;50.656;13.064;2023-07-24T03:56:13;22.10;40.90
19090;DHT22;9677;50.656;13.064;2023-07-24T03:58:41;22.10;40.90
19090;DHT22;9677;50.656;13.064;2023-07-24T04:01:10;22.10;41.00
19090;DHT22;9677;50.656;13.064;2023-07-24T04:03:39;22.10;41.20
19090;DHT22;9677;50.656;13.064;2023-07-24T04:06:07;22.00;41.00
19090;DHT22;9677;50.656;13.064;2023-07-24T04:08:36;22.00;41.00
19090;DHT22;9677;50.656;13.064;2023-07-24T04:11:04;22.00;41.10
19090;DHT22;9677;50.656;13.064;2023-07-24T04:13:32;22.00;41.10
19090;DHT22;9677;50.656;13.064;2023-07-24T04:16:00;21.90;41.20
19090;DHT22;9677;50.656;13.064;2023-07-24T04:18:30;21.90;41.20
19090;DHT22;9677;50.656;13.064;2023-07-24T04:20:58;22.00;42.00
19090;DHT22;9677;50.656;13.064;2023-07-24T04:23:26;21.90;41.40
19090;DHT22;9677;50.656;13.064;2023-07-24T04:25:55;21.90;41.50
19090;DHT22;9677;50.656;13.064;2023-07-24T04:28:23;21.90;41.60
19090;DHT22;9677;50.656;13.064;2023-07-24T04:30:51;21.90;41.50
19090;DHT22;9677;50.656;13.064;2023-07-24T04:33:19;21.90;41.60
19090;DHT22;9677;50.656;13.064;2023-07-24T04:35:49;21.90;41.70
19090;DHT22;9677;50.656;13.064;2023-07-24T04:38:17;21.90;41.80
19090;DHT22;9677;50.656;13.064;2023-07-24T04:40:45;21.90;41.80
19090;DHT22;9677;50.656;13.064;2023-07-24T04:43:13;21.90;41.90
19090;DHT22;9677;50.656;13.064;2023-07-24T04:45:41;21.90;42.00
19090;DHT22;9677;50.656;13.064;2023-07-24T04:48:10;21.90;42.00
19090;DHT22;9677;50.656;13.064;2023-07-24T04:50:38;21.90;42.10
19090;DHT22;9677;50.656;13.064;2023-07-24T04:53:07;21.90;42.10
19090;DHT22;9677;50.656;13.064;2023-07-24T04:55:35;21.90;42.30
19090;DHT22;9677;50.656;13.064;2023-07-24T04:58:03;21.90;42.30
19090;DHT22;9677;50.656;13.064;2023-07-24T05:00:32;21.90;42.30
19090;DHT22;9677;50.656;13.064;2023-07-24T05:03:00;21.90;42.30
19090;DHT22;9677;50.656;13.064;2023-07-24T05:05:28;21.90;42.30
19090;DHT22;9677;50.656;13.064;2023-07-24T05:07:58;22.00;42.40
19090;DHT22;9677;50.656;13.064;2023-07-24T05:10:27;22.00;42.40
19090;DHT22;9677;50.656;13.064;2023-07-24T05:12:55;22.00;42.50
19090;DHT22;9677;50.656;13.064;2023-07-24T05:15:24;22.00;42.40
19090;DHT22;9677;50.656;13.064;2023-07-24T05:17:52;22.10;42.50
19090;DHT22;9677;50.656;13.064;2023-07-24T05:20:20;22.10;42.60
19090;DHT22;9677;50.656;13.064;2023-07-24T05:22:48;22.10;42.60
19090;DHT22;9677;50.656;13.064;2023-07-24T05:25:16;22.10;42.70
19090;DHT22;9677;50.656;13.064;2023-07-24T05:27:46;22.20;42.70
19090;DHT22;9677;50.656;13.064;2023-07-24T05:30:14;22.20;42.70
19090;DHT22;9677;50.656;13.064;2023-07-24T05:32:42;22.20;42.70
19090;DHT22;9677;50.656;13.064;2023-07-24T05:35:10;22.20;42.70
19090;DHT22;9677;50.656;13.064;2023-07-24T05:37:39;22.20;42.70
19090;DHT22;9677;50.656;13.064;2023-07-24T05:40:08;22.30;42.70
19090;DHT22;9677;50.656;13.064;2023-07-24T05:42:36;22.30;42.80
19090;DHT22;9677;50.656;13.064;2023-07-24T05:45:10;22.30;42.70
19090;DHT22;9677;50.656;13.064;2023-07-24T05:47:38;22.40;42.80
19090;DHT22;9677;50.656;13.064;2023-07-24T05:50:07;22.40;42.90
19090;DHT22;9677;50.656;13.064;2023-07-24T05:52:36;22.50;42.90
19090;DHT22;9677;50.656;13.064;2023-07-24T05:55:04;22.50;42.90
19090;DHT22;9677;50.656;13.064;2023-07-24T05:57:33;22.50;42.90
19090;DHT22;9677;50.656;13.064;2023-07-24T06:00:01;22.60;43.00
19090;DHT22;9677;50.656;13.064;2023-07-24T06:02:38;22.60;43.00
19090;DHT22;9677;50.656;13.064;2023-07-24T06:05:07;22.70;43.10
19090;DHT22;9677;50.656;13.064;2023-07-24T06:07:35;22.70;42.90
19090;DHT22;9677;50.656;13.064;2023-07-24T06:10:04;22.70;43.00
19090;DHT22;9677;50.656;13.064;2023-07-24T06:12:33;22.80;43.00
19090;DHT22;9677;50.656;13.064;2023-07-24T06:15:01;22.80;42.90
19090;DHT22;9677;50.656;13.064;2023-07-24T06:17:30;22.80;43.00
19090;DHT22;9677;50.656;13.064;2023-07-24T06:19:59;22.90;43.00
19090;DHT22;9677;50.656;13.064;2023-07-24T06:22:27;22.90;43.20
19090;DHT22;9677;50.656;13.064;2023-07-24T06:24:55;23.00;43.10
19090;DHT22;9677;50.656;13.064;2023-07-24T06:27:24;23.10;43.10
19090;DHT22;9677;50.656;13.064;2023-07-24T06:29:52;23.10;43.20
19090;DHT22;9677;50.656;13.064;2023-07-24T06:32:30;23.20;43.20
19090;DHT22;9677;50.656;13.064;2023-07-24T06:35:00;23.20;43.30
19090;DHT22;9677;50.656;13.064;2023-07-24T06:37:28;23.30;43.30
19090;DHT22;9677;50.656;13.064;2023-07-24T06:39:56;23.40;43.30
19090;DHT22;9677;50.656;13.064;2023-07-24T06:42:24;23.50;43.30
19090;DHT22;9677;50.656;13.064;2023-07-24T06:44:53;23.50;43.30
19090;DHT22;9677;50.656;13.064;2023-07-24T06:47:21;23.60;43.30
19090;DHT22;9677;50.656;13.064;2023-07-24T06:49:49;23.70;43.30
19090;DHT22;9677;50.656;13.064;2023-07-24T06:52:19;23.70;43.20
19090;DHT22;9677;50.656;13.064;2023-07-24T06:54:47;23.90;43.30
19090;DHT22;9677;50.656;13.064;2023-07-24T06:57:15;24.00;43.10
19090;DHT22;9677;50.656;13.064;2023-07-24T06:59:43;24.00;43.00
19090;DHT22;9677;50.656;13.064;2023-07-24T07:02:11;24.20;43.00
19090;DHT22;9677;50.656;13.064;2023-07-24T07:04:39;24.20;42.90
19090;DHT22;9677;50.656;13.064;2023-07-24T07:07:08;24.30;42.90
19090;DHT22;9677;50.656;13.064;2023-07-24T07:09:38;24.40;42.90
19090;DHT22;9677;50.656;13.064;2023-07-24T07:12:07;24.50;42.70
19090;DHT22;9677;50.656;13.064;2023-07-24T07:14:35;24.60;42.70
19090;DHT22;9677;50.656;13.064;2023-07-24T07:17:04;24.70;42.80
19090;DHT22;9677;50.656;13.064;2023-07-24T07:19:32;24.80;42.70
19090;DHT22;9677;50.656;13.064;2023-07-24T07:22:00;24.90;42.60
19090;DHT22;9677;50.656;13.064;2023-07-24T07:24:28;25.00;42.70
19090;DHT22;9677;50.656;13.064;2023-07-24T07:26:58;25.10;42.60
19090;DHT22;9677;50.656;13.064;2023-07-24T07:29:26;25.20;42.50
19090;DHT22;9677;50.656;13.064;2023-07-24T07:31:54;25.30;43.10
19090;DHT22;9677;50.656;13.064;2023-07-24T07:34:22;25.40;42.40
19090;DHT22;9677;50.656;13.064;2023-07-24T07:36:50;25.50;42.30
19090;DHT22;9677;50.656;13.064;2023-07-24T07:39:18;25.60;42.10
19090;DHT22;9677;50.656;13.064;2023-07-24T07:41:47;25.80;42.10
19090;DHT22;9677;50.656;13.064;2023-07-24T07:44:16;25.90;41.90
19090;DHT22;9677;50.656;13.064;2023-07-24T07:46:44;25.90;42.50
19090;DHT22;9677;50.656;13.064;2023-07-24T07:49:13;26.10;42.00
19090;DHT22;9677;50.656;13.064;2023-07-24T07:51:41;26.20;42.00
19090;DHT22;9677;50.656;13.064;2023-07-24T07:54:09;26.30;42.00
19090;DHT22;9677;50.656;13.064;2023-07-24T07:56:37;26.40;42.00
19090;DHT22;9677;50.656;13.064;2023-07-24T07:59:06;26.60;42.00
19090;DHT22;9677;50.656;13.064;2023-07-24T08:01:36;26.80;41.80
19090;DHT22;9677;50.656;13.064;2023-07-24T08:04:06;26.90;41.70
19090;DHT22;9677;50.656;13.064;2023-07-24T08:06:34;27.00;41.50
19090;DHT22;9677;50.656;13.064;2023-07-24T08:09:02;27.10;41.20
19090;DHT22;9677;50.656;13.064;2023-07-24T08:11:30;27.30;41.20
19090;DHT22;9677;50.656;13.064;2023-07-24T08:13:58;27.40;40.90
19090;DHT22;9677;50.656;13.064;2023-07-24T08:16:26;27.50;40.70
19090;DHT22;9677;50.656;13.064;2023-07-24T08:18:57;27.60;40.70
19090;DHT22;9677;50.656;13.064;2023-07-24T08:21:25;27.70;40.60
19090;DHT22;9677;50.656;13.064;2023-07-24T08:23:53;27.80;40.60
19090;DHT22;9677;50.656;13.064;2023-07-24T08:26:21;27.80;40.50
19090;DHT22;9677;50.656;13.064;2023-07-24T08:28:51;27.90;40.40
19090;DHT22;9677;50.656;13.064;2023-07-24T08:31:19;28.00;40.20
19090;DHT22;9677;50.656;13.064;2023-07-24T08:33:48;28.10;39.90
19090;DHT22;9677;50.656;13.064;2023-07-24T08:36:17;28.20;39.70
19090;DHT22;9677;50.656;13.064;2023-07-24T08:38:46;28.30;39.60
19090;DHT22;9677;50.656;13.064;2023-07-24T08:41:15;28.30;39.50
19090;DHT22;9677;50.656;13.064;2023-07-24T08:43:43;28.40;39.40
19090;DHT22;9677;50.656;13.064;2023-07-24T08:46:12;28.40;39.40
19090;DHT22;9677;50.656;13.064;2023-07-24T08:48:41;28.50;39.30
19090;DHT22;9677;50.656;13.064;2023-07-24T08:51:11;28.50;39.20
19090;DHT22;9677;50.656;13.064;2023-07-24T08:53:43;28.60;39.10
19090;DHT22;9677;50.656;13.064;2023-07-24T08:56:12;28.70;39.00
19090;DHT22;9677;50.656;13.064;2023-07-24T08:58:41;28.70;39.00
19090;DHT22;9677;50.656;13.064;2023-07-24T09:01:10;28.80;39.10
19090;DHT22;9677;50.656;13.064;2023-07-24T09:03:38;29.10;39.20
19090;DHT22;9677;50.656;13.064;2023-07-24T09:06:07;28.90;39.00
19090;DHT22;9677;50.656;13.064;2023-07-24T09:08:36;28.90;38.90
19090;DHT22;9677;50.656;13.064;2023-07-24T09:11:08;29.00;38.90
19090;DHT22;9677;50.656;13.064;2023-07-24T09:13:40;29.00;38.90
19090;DHT22;9677;50.656;13.064;2023-07-24T09:16:20;29.00;38.80
19090;DHT22;9677;50.656;13.064;2023-07-24T09:18:50;29.00;38.60
19090;DHT22;9677;50.656;13.064;2023-07-24T09:21:28;29.00;38.60
19090;DHT22;9677;50.656;13.064;2023-07-24T09:23:57;28.90;39.20
19090;DHT22;9677;50.656;13.064;2023-07-24T09:26:27;29.00;38.60
19090;DHT22;9677;50.656;13.064;2023-07-24T09:28:55;29.10;38.60
19090;DHT22;9677;50.656;13.064;2023-07-24T09:31:34;29.00;38.50
19090;DHT22;9677;50.656;13.064;2023-07-24T09:34:03;29.00;38.60
19090;DHT22;9677;50.656;13.064;2023-07-24T09:36:37;29.00;38.60
19090;DHT22;9677;50.656;13.064;2023-07-24T09:39:05;29.00;38.70
19090;DHT22;9677;50.656;13.064;2023-07-24T09:41:39;28.90;38.50
19090;DHT22;9677;50.656;13.064;2023-07-24T09:44:07;29.00;38.60
19090;DHT22;9677;50.656;13.064;2023-07-24T09:46:35;29.00;38.60
19090;DHT22;9677;50.656;13.064;2023-07-24T09:49:13;28.90;38.50
19090;DHT22;9677;50.656;13.064;2023-07-24T09:51:44;28.90;38.50
19090;DHT22;9677;50.656;13.064;2023-07-24T09:54:19;28.90;38.60
19090;DHT22;9677;50.656;13.064;2023-07-24T09:56:54;28.90;38.70
19090;DHT22;9677;50.656;13.064;2023-07-24T09:59:41;28.90;39.00
19090;DHT22;9677;50.656;13.064;2023-07-24T10:02:11;28.90;39.00
19090;DHT22;9677;50.656;13.064;2023-07-24T10:04:40;28.90;39.10
19090;DHT22;9677;50.656;13.064;2023-07-24T10:07:10;29.00;39.30
19090;DHT22;9677;50.656;13.064;2023-07-24T10:09:38;28.90;39.10
19090;DHT22;9677;50.656;13.064;2023-07-24T10:12:09;29.00;39.20
19090;DHT22;9677;50.656;13.064;2023-07-24T10:14:37;29.00;39.40
19090;DHT22;9677;50.656;13.064;2023-07-24T10:17:06;29.10;39.40
19090;DHT22;9677;50.656;13.064;2023-07-24T10:19:39;29.10;39.40
19090;DHT22;9677;50.656;13.064;2023-07-24T10:22:16;29.10;39.30
19090;DHT22;9677;50.656;13.064;2023-07-24T10:24:45;29.20;39.30
19090;DHT22;9677;50.656;13.064;2023-07-24T10:27:14;29.20;39.20
19090;DHT22;9677;50.656;13.064;2023-07-24T10:29:42;29.20;39.10
19090;DHT22;9677;50.656;13.064;2023-07-24T10:32:17;29.30;39.30
19090;DHT22;9677;50.656;13.064;2023-07-24T10:34:55;29.40;39.40
19090;DHT22;9677;50.656;13.064;2023-07-24T10:37:35;29.40;38.90
19090;DHT22;9677;50.656;13.064;2023-07-24T10:40:05;29.50;38.80
19090;DHT22;9677;50.656;13.064;2023-07-24T10:42:35;29.50;38.70
19090;DHT22;9677;50.656;13.064;2023-07-24T10:45:07;29.60;38.90
19090;DHT22;9677;50.656;13.064;2023-07-24T10:47:37;29.70;38.80
19090;DHT22;9677;50.656;13.064;2023-07-24T10:50:06;29.80;39.00
19090;DHT22;9677;50.656;13.064;2023-07-24T10:52:35;30.00;38.90
19090;DHT22;9677;50.656;13.064;2023-07-24T10:55:04;30.20;39.00
19090;DHT22;9677;50.656;13.064;2023-07-24T10:57:33;30.30;38.80
19090;DHT22;9677;50.656;13.064;2023-07-24T11:00:03;30.40;38.50
19090;DHT22;9677;50.656;13.064;2023-07-24T11:02:31;30.50;38.20
19090;DHT22;9677;50.656;13.064;2023-07-24T11:05:00;30.70;38.00
19090;DHT22;9677;50.656;13.064;2023-07-24T11:07:32;30.60;37.70
19090;DHT22;9677;50.656;13.064;2023-07-24T11:10:01;30.60;37.60
19090;DHT22;9677;50.656;13.064;2023-07-24T11:12:29;30.60;37.70
19090;DHT22;9677;50.656;13.064;2023-07-24T11:15:00;30.80;37.70
19090;DHT22;9677;50.656;13.064;2023-07-24T11:17:35;30.70;37.60
19090;DHT22;9677;50.656;13.064;2023-07-24T11:20:08;30.70;37.60
19090;DHT22;9677;50.656;13.064;2023-07-24T11:22:42;30.70;37.70
19090;DHT22;9677;50.656;13.064;2023-07-24T11:25:11;30.60;37.60
19090;DHT22;9677;50.656;13.064;2023-07-24T11:27:40;30.70;37.90
19090;DHT22;9677;50.656;13.064;2023-07-24T11:30:12;30.70;37.60
19090;DHT22;9677;50.656;13.064;2023-07-24T11:32:41;30.70;37.60
19090;DHT22;9677;50.656;13.064;2023-07-24T11:35:10;30.70;37.50
19090;DHT22;9677;50.656;13.064;2023-07-24T11:37:39;30.80;37.50
19090;DHT22;9677;50.656;13.064;2023-07-24T11:40:08;30.70;37.50
19090;DHT22;9677;50.656;13.064;2023-07-24T11:42:40;30.70;37.40
19090;DHT22;9677;50.656;13.064;2023-07-24T11:45:12;30.80;37.40
19090;DHT22;9677;50.656;13.064;2023-07-24T11:47:44;30.70;37.30
19090;DHT22;9677;50.656;13.064;2023-07-24T11:50:14;30.70;37.10
19090;DHT22;9677;50.656;13.064;2023-07-24T11:52:45;30.60;37.70
19090;DHT22;9677;50.656;13.064;2023-07-24T11:55:16;30.50;37.20
19090;DHT22;9677;50.656;13.064;2023-07-24T11:57:55;30.50;37.20
19090;DHT22;9677;50.656;13.064;2023-07-24T12:00:26;30.40;37.20
19090;DHT22;9677;50.656;13.064;2023-07-24T12:03:00;30.40;37.30
19090;DHT22;9677;50.656;13.064;2023-07-24T12:05:38;30.40;37.50
19090;DHT22;9677;50.656;13.064;2023-07-24T12:08:07;30.30;37.90
19090;DHT22;9677;50.656;13.064;2023-07-24T12:10:37;30.30;37.80
19090;DHT22;9677;50.656;13.064;2023-07-24T12:13:07;30.10;37.80
19090;DHT22;9677;50.656;13.064;2023-07-24T12:15:36;29.90;37.70
19090;DHT22;9677;50.656;13.064;2023-07-24T12:18:05;29.80;37.80
19090;DHT22;9677;50.656;13.064;2023-07-24T12:20:34;29.60;38.00
19090;DHT22;9677;50.656;13.064;2023-07-24T12:23:02;29.40;38.30
19090;DHT22;9677;50.656;13.064;2023-07-24T12:25:31;29.20;38.70
19090;DHT22;9677;50.656;13.064;2023-07-24T12:27:59;29.20;38.90
19090;DHT22;9677;50.656;13.064;2023-07-24T12:30:27;28.80;38.90
19090;DHT22;9677;50.656;13.064;2023-07-24T12:32:56;28.60;39.10
19090;DHT22;9677;50.656;13.064;2023-07-24T12:35:25;28.50;39.50
19090;DHT22;9677;50.656;13.064;2023-07-24T12:37:53;28.40;39.70
19090;DHT22;9677;50.656;13.064;2023-07-24T12:40:21;28.30;40.10
19090;DHT22;9677;50.656;13.064;2023-07-24T12:42:49;28.20;40.40
19090;DHT22;9677;50.656;13.064;2023-07-24T12:45:18;28.10;40.40
19090;DHT22;9677;50.656;13.064;2023-07-24T12:47:46;28.10;40.70
19090;DHT22;9677;50.656;13.064;2023-07-24T12:50:15;28.00;40.90
19090;DHT22;9677;50.656;13.064;2023-07-24T12:52:44;28.00;40.90
19090;DHT22;9677;50.656;13.064;2023-07-24T12:55:13;27.90;40.90
19090;DHT22;9677;50.656;13.064;2023-07-24T12:57:41;27.80;41.00
19090;DHT22;9677;50.656;13.064;2023-07-24T13:00:10;27.70;41.70
19090;DHT22;9677;50.656;13.064;2023-07-24T13:02:39;27.70;41.50
19090;DHT22;9677;50.656;13.064;2023-07-24T13:05:07;27.70;41.80
19090;DHT22;9677;50.656;13.064;2023-07-24T13:07:37;27.60;41.80
19090;DHT22;9677;50.656;13.064;2023-07-24T13:10:07;27.60;42.00
19090;DHT22;9677;50.656;13.064;2023-07-24T13:12:36;27.60;42.10
19090;DHT22;9677;50.656;13.064;2023-07-24T13:15:05;27.60;42.20
19090;DHT22;9677;50.656;13.064;2023-07-24T13:17:34;27.60;42.50
19090;DHT22;9677;50.656;13.064;2023-07-24T13:20:04;27.60;42.50
19090;DHT22;9677;50.656;13.064;2023-07-24T13:22:33;27.60;42.50
19090;DHT22;9677;50.656;13.064;2023-07-24T13:25:03;27.60;42.60
19090;DHT22;9677;50.656;13.064;2023-07-24T13:27:31;27.70;42.70
19090;DHT22;9677;50.656;13.064;2023-07-24T13:29:59;27.70;42.70
19090;DHT22;9677;50.656;13.064;2023-07-24T13:32:27;27.70;42.80
19090;DHT22;9677;50.656;13.064;2023-07-24T13:34:56;27.70;42.90
19090;DHT22;9677;50.656;13.064;2023-07-24T13:37:26;27.80;43.00
19090;DHT22;9677;50.656;13.064;2023-07-24T13:39:54;27.80;43.10
19090;DHT22;9677;50.656;13.064;2023-07-24T13:42:24;28.10;43.30
19090;DHT22;9677;50.656;13.064;2023-07-24T13:44:52;27.90;43.30
19090;DHT22;9677;50.656;13.064;2023-07-24T13:47:20;27.90;43.30
19090;DHT22;9677;50.656;13.064;2023-07-24T13:49:49;28.00;43.30
19090;DHT22;9677;50.656;13.064;2023-07-24T13:52:17;28.00;43.40
19090;DHT22;9677;50.656;13.064;2023-07-24T13:54:45;28.10;43.50
19090;DHT22;9677;50.656;13.064;2023-07-24T13:57:13;28.10;43.60
19090;DHT22;9677;50.656;13.064;2023-07-24T13:59:43;28.20;43.70
19090;DHT22;9677;50.656;13.064;2023-07-24T14:02:11;28.30;43.80
19090;DHT22;9677;50.656;13.064;2023-07-24T14:04:40;28.40;43.80
19090;DHT22;9677;50.656;13.064;2023-07-24T14:07:08;28.70;43.90
19090;DHT22;9677;50.656;13.064;2023-07-24T14:09:36;28.60;43.90
19090;DHT22;9677;50.656;13.064;2023-07-24T14:12:07;28.70;43.70
19090;DHT22;9677;50.656;13.064;2023-07-24T14:14:36;28.70;43.50
19090;DHT22;9677;50.656;13.064;2023-07-24T14:17:05;28.80;43.50
19090;DHT22;9677;50.656;13.064;2023-07-24T14:19:34;29.10;43.60
19090;DHT22;9677;50.656;13.064;2023-07-24T14:22:02;29.00;43.50
19090;DHT22;9677;50.656;13.064;2023-07-24T14:24:30;28.90;43.40
19090;DHT22;9677;50.656;13.064;2023-07-24T14:26:58;28.90;43.20
19090;DHT22;9677;50.656;13.064;2023-07-24T14:29:26;28.90;43.20
19090;DHT22;9677;50.656;13.064;2023-07-24T14:31:54;28.90;43.30
19090;DHT22;9677;50.656;13.064;2023-07-24T14:34:24;29.00;43.50
19090;DHT22;9677;50.656;13.064;2023-07-24T14:36:52;29.10;43.60
19090;DHT22;9677;50.656;13.064;2023-07-24T14:39:20;29.10;43.50
19090;DHT22;9677;50.656;13.064;2023-07-24T14:41:49;29.20;43.40
19090;DHT22;9677;50.656;13.064;2023-07-24T14:44:17;29.40;43.40
19090;DHT22;9677;50.656;13.064;2023-07-24T14:46:45;29.40;43.30
19090;DHT22;9677;50.656;13.064;2023-07-24T14:49:13;29.40;43.10
19090;DHT22;9677;50.656;13.064;2023-07-24T14:51:43;29.40;43.00
19090;DHT22;9677;50.656;13.064;2023-07-24T14:54:11;29.50;42.60
19090;DHT22;9677;50.656;13.064;2023-07-24T14:56:39;29.50;42.40
19090;DHT22;9677;50.656;13.064;2023-07-24T14:59:23;29.60;42.50
19090;DHT22;9677;50.656;13.064;2023-07-24T15:01:52;29.90;42.40
19090;DHT22;9677;50.656;13.064;2023-07-24T15:04:20;29.70;42.30
19090;DHT22;9677;50.656;13.064;2023-07-24T15:06:49;29.70;42.20
19090;DHT22;9677;50.656;13.064;2023-07-24T15:09:17;29.80;42.30
19090;DHT22;9677;50.656;13.064;2023-07-24T15:11:46;29.80;41.90
19090;DHT22;9677;50.656;13.064;2023-07-24T15:14:14;29.90;41.50
19090;DHT22;9677;50.656;13.064;2023-07-24T15:16:42;30.00;41.50
19090;DHT22;9677;50.656;13.064;2023-07-24T15:19:12;30.00;41.30
19090;DHT22;9677;50.656;13.064;2023-07-24T15:21:40;30.00;40.90
19090;DHT22;9677;50.656;13.064;2023-07-24T15:24:09;30.10;40.80
19090;DHT22;9677;50.656;13.064;2023-07-24T15:26:37;30.10;40.50
19090;DHT22;9677;50.656;13.064;2023-07-24T15:29:06;30.10;40.30
19090;DHT22;9677;50.656;13.064;2023-07-24T15:31:34;30.10;40.10
19090;DHT22;9677;50.656;13.064;2023-07-24T15:34:03;30.10;39.90
19090;DHT22;9677;50.656;13.064;2023-07-24T15:36:32;30.00;40.00
19090;DHT22;9677;50.656;13.064;2023-07-24T15:39:02;30.10;40.20
19090;DHT22;9677;50.656;13.064;2023-07-24T15:41:31;30.10;40.30
19090;DHT22;9677;50.656;13.064;2023-07-24T15:44:00;30.10;40.20